sensor_id;sensor_type;location;lat;lon;timestamp;pressure;altitude;pressure_sealevel;temperature;humidity
48053;BME280;33824;51.600;5.718;2023-05-23T00:00:23;101649.69;;;16.65;89.41
48053;BME280;33824;51.600;5.718;2023-05-23T00:03:09;101648.78;;;16.58;89.46
48053;BME280;33824;51.600;5.718;2023-05-23T00:05:35;101648.22;;;16.62;89.54
48053;BME280;33824;51.600;5.718;2023-05-23T00:08:01;101638.47;;;16.61;89.38
48053;BME280;33824;51.600;5.718;2023-05-23T00:10:26;101653.00;;;16.67;89.27
48053;BME280;33824;51.600;5.718;2023-05-23T00:12:52;101640.59;;;16.66;89.85
48053;BME280;33824;51.600;5.718;2023-05-23T00:15:18;101644.88;;;16.60;89.86
48053;BME280;33824;51.600;5.718;2023-05-23T00:17:44;101645.53;;;16.62;89.81
48053;BME280;33824;51.600;5.718;2023-05-23T00:20:10;101648.50;;;16.53;90.50
48053;BME280;33824;51.600;5.718;2023-05-23T00:22:39;101657.81;;;16.50;90.40
48053;BME280;33824;51.600;5.718;2023-05-23T00:25:08;101656.13;;;16.49;90.21
48053;BME280;33824;51.600;5.718;2023-05-23T00:27:34;101655.28;;;16.49;90.30
48053;BME280;33824;51.600;5.718;2023-05-23T00:30:00;101655.88;;;16.44;90.25
48053;BME280;33824;51.600;5.718;2023-05-23T00:32:26;101664.16;;;16.43;90.30
48053;BME280;33824;51.600;5.718;2023-05-23T00:34:52;101661.00;;;16.39;90.13
48053;BME280;33824;51.600;5.718;2023-05-23T00:37:19;101668.47;;;16.44;89.90
48053;BME280;33824;51.600;5.718;2023-05-23T00:39:47;101661.84;;;16.40;90.14
48053;BME280;33824;51.600;5.718;2023-05-23T00:42:12;101669.53;;;16.43;89.82
48053;BME280;33824;51.600;5.718;2023-05-23T00:44:38;101659.16;;;16.40;89.58
48053;BME280;33824;51.600;5.718;2023-05-23T00:47:05;101664.06;;;16.36;89.59
48053;BME280;33824;51.600;5.718;2023-05-23T00:49:32;101669.91;;;16.40;89.74
48053;BME280;33824;51.600;5.718;2023-05-23T00:51:58;101669.72;;;16.41;89.59
48053;BME280;33824;51.600;5.718;2023-05-23T00:54:27;101670.94;;;16.39;89.63
48053;BME280;33824;51.600;5.718;2023-05-23T00:56:55;101670.66;;;16.33;89.62
48053;BME280;33824;51.600;5.718;2023-05-23T00:59:25;101677.00;;;16.26;89.93
48053;BME280;33824;51.600;5.718;2023-05-23T01:01:51;101683.84;;;16.28;89.61
48053;BME280;33824;51.600;5.718;2023-05-23T01:04:17;101688.44;;;16.28;89.79
48053;BME280;33824;51.600;5.718;2023-05-23T01:06:45;101683.69;;;16.30;89.69
48053;BME280;33824;51.600;5.718;2023-05-23T01:09:14;101683.69;;;16.30;89.81
48053;BME280;33824;51.600;5.718;2023-05-23T01:11:57;101676.09;;;16.19;89.75
48053;BME280;33824;51.600;5.718;2023-05-23T01:14:58;101682.50;;;16.18;90.04
48053;BME280;33824;51.600;5.718;2023-05-23T01:18:32;101679.75;;;16.11;89.71
48053;BME280;33824;51.600;5.718;2023-05-23T01:20:51;101678.13;;;15.96;90.41
48053;BME280;33824;51.600;5.718;2023-05-23T01:28:54;101677.00;;;16.05;90.13
48053;BME280;33824;51.600;5.718;2023-05-23T01:31:23;101690.63;;;16.03;89.98
48053;BME280;33824;51.600;5.718;2023-05-23T01:33:53;101691.75;;;16.09;89.98
48053;BME280;33824;51.600;5.718;2023-05-23T01:36:19;101683.28;;;16.12;89.72
48053;BME280;33824;51.600;5.718;2023-05-23T01:38:44;101688.31;;;16.00;90.57
48053;BME280;33824;51.600;5.718;2023-05-23T01:41:10;101689.31;;;15.99;90.49
48053;BME280;33824;51.600;5.718;2023-05-23T01:43:36;101698.88;;;16.02;90.78
48053;BME280;33824;51.600;5.718;2023-05-23T01:46:02;101701.56;;;16.02;90.46
48053;BME280;33824;51.600;5.718;2023-05-23T01:48:29;101704.38;;;15.94;90.59
48053;BME280;33824;51.600;5.718;2023-05-23T01:50:55;101708.63;;;15.88;91.33
48053;BME280;33824;51.600;5.718;2023-05-23T01:53:22;101701.03;;;15.92;91.39
48053;BME280;33824;51.600;5.718;2023-05-23T01:55:48;101703.66;;;15.85;91.37
48053;BME280;33824;51.600;5.718;2023-05-23T01:58:14;101706.88;;;15.80;91.75
48053;BME280;33824;51.600;5.718;2023-05-23T02:00:40;101713.94;;;15.81;91.53
48053;BME280;33824;51.600;5.718;2023-05-23T02:03:05;101709.28;;;15.75;92.23
48053;BME280;33824;51.600;5.718;2023-05-23T02:05:31;101714.66;;;15.75;91.75
48053;BME280;33824;51.600;5.718;2023-05-23T02:07:57;101713.50;;;15.78;91.63
48053;BME280;33824;51.600;5.718;2023-05-23T02:10:22;101722.00;;;15.81;91.38
48053;BME280;33824;51.600;5.718;2023-05-23T02:12:48;101721.28;;;15.58;92.73
48053;BME280;33824;51.600;5.718;2023-05-23T02:15:14;101731.44;;;15.48;93.48
48053;BME280;33824;51.600;5.718;2023-05-23T02:17:39;101750.50;;;15.38;93.88
48053;BME280;33824;51.600;5.718;2023-05-23T02:20:06;101737.38;;;15.44;93.16
48053;BME280;33824;51.600;5.718;2023-05-23T02:22:32;101732.47;;;15.47;92.94
48053;BME280;33824;51.600;5.718;2023-05-23T02:24:57;101735.97;;;15.48;92.33
48053;BME280;33824;51.600;5.718;2023-05-23T02:27:23;101733.13;;;15.49;92.27
48053;BME280;33824;51.600;5.718;2023-05-23T02:29:48;101733.38;;;15.40;92.95
48053;BME280;33824;51.600;5.718;2023-05-23T02:32:14;101732.38;;;15.41;93.10
48053;BME280;33824;51.600;5.718;2023-05-23T02:34:40;101729.69;;;15.41;92.83
48053;BME280;33824;51.600;5.718;2023-05-23T02:37:05;101731.31;;;15.42;92.34
48053;BME280;33824;51.600;5.718;2023-05-23T02:39:36;101732.84;;;15.44;91.85
48053;BME280;33824;51.600;5.718;2023-05-23T02:42:01;101732.00;;;15.44;92.50
48053;BME280;33824;51.600;5.718;2023-05-23T02:44:27;101736.69;;;15.42;92.34
48053;BME280;33824;51.600;5.718;2023-05-23T02:46:53;101732.47;;;15.47;92.62
48053;BME280;33824;51.600;5.718;2023-05-23T02:49:18;101736.66;;;15.50;92.23
48053;BME280;33824;51.600;5.718;2023-05-23T02:51:44;101729.78;;;15.47;92.56
48053;BME280;33824;51.600;5.718;2023-05-23T02:54:09;101732.56;;;15.54;92.18
48053;BME280;33824;51.600;5.718;2023-05-23T02:56:35;101728.75;;;15.48;93.16
48053;BME280;33824;51.600;5.718;2023-05-23T02:59:00;101731.75;;;15.53;93.00
48053;BME280;33824;51.600;5.718;2023-05-23T03:01:26;101735.47;;;15.52;92.42
48053;BME280;33824;51.600;5.718;2023-05-23T03:03:52;101733.59;;;15.53;92.68
48053;BME280;33824;51.600;5.718;2023-05-23T03:06:17;101736.66;;;15.50;92.91
48053;BME280;33824;51.600;5.718;2023-05-23T03:08:43;101741.19;;;15.49;92.76
48053;BME280;33824;51.600;5.718;2023-05-23T03:11:09;101736.09;;;15.54;92.36
48053;BME280;33824;51.600;5.718;2023-05-23T03:13:35;101730.09;;;15.52;92.36
48053;BME280;33824;51.600;5.718;2023-05-23T03:16:00;101733.63;;;15.45;93.34
48053;BME280;33824;51.600;5.718;2023-05-23T03:18:26;101746.06;;;15.46;93.01
48053;BME280;33824;51.600;5.718;2023-05-23T03:20:51;101748.28;;;15.42;93.81
48053;BME280;33824;51.600;5.718;2023-05-23T03:23:17;101741.16;;;15.34;94.07
48053;BME280;33824;51.600;5.718;2023-05-23T03:25:43;101749.22;;;15.34;93.87
48053;BME280;33824;51.600;5.718;2023-05-23T03:28:09;101747.66;;;15.40;93.46
48053;BME280;33824;51.600;5.718;2023-05-23T03:30:36;101754.69;;;15.41;93.54
48053;BME280;33824;51.600;5.718;2023-05-23T03:33:03;101747.19;;;15.36;93.54
48053;BME280;33824;51.600;5.718;2023-05-23T03:35:28;101763.47;;;15.35;93.69
48053;BME280;33824;51.600;5.718;2023-05-23T03:37:54;101761.81;;;15.34;93.71
48053;BME280;33824;51.600;5.718;2023-05-23T03:40:19;101763.09;;;15.23;94.85
48053;BME280;33824;51.600;5.718;2023-05-23T03:42:47;101766.97;;;15.21;94.39
48053;BME280;33824;51.600;5.718;2023-05-23T03:45:13;101767.06;;;15.13;95.19
48053;BME280;33824;51.600;5.718;2023-05-23T03:47:39;101766.84;;;15.14;95.20
48053;BME280;33824;51.600;5.718;2023-05-23T03:50:05;101773.06;;;15.15;94.99
48053;BME280;33824;51.600;5.718;2023-05-23T03:52:31;101771.50;;;15.20;94.59
48053;BME280;33824;51.600;5.718;2023-05-23T03:54:56;101763.16;;;15.15;95.24
48053;BME280;33824;51.600;5.718;2023-05-23T03:57:22;101769.66;;;15.21;94.95
48053;BME280;33824;51.600;5.718;2023-05-23T03:59:47;101772.06;;;15.16;95.46
48053;BME280;33824;51.600;5.718;2023-05-23T04:02:13;101768.16;;;15.18;94.92
48053;BME280;33824;51.600;5.718;2023-05-23T04:04:39;101772.06;;;15.16;95.13
48053;BME280;33824;51.600;5.718;2023-05-23T04:07:05;101776.53;;;15.23;94.97
48053;BME280;33824;51.600;5.718;2023-05-23T04:09:31;101780.03;;;15.24;95.11
48053;BME280;33824;51.600;5.718;2023-05-23T04:11:57;101784.59;;;15.23;95.22
48053;BME280;33824;51.600;5.718;2023-05-23T04:14:22;101772.63;;;15.26;94.63
48053;BME280;33824;51.600;5.718;2023-05-23T04:16:52;101773.47;;;15.26;94.83
48053;BME280;33824;51.600;5.718;2023-05-23T04:19:18;101764.41;;;15.27;94.60
48053;BME280;33824;51.600;5.718;2023-05-23T04:21:43;101785.06;;;15.27;95.00
48053;BME280;33824;51.600;5.718;2023-05-23T04:24:09;101778.84;;;15.26;94.78
48053;BME280;33824;51.600;5.718;2023-05-23T04:26:35;101780.34;;;15.29;94.67
48053;BME280;33824;51.600;5.718;2023-05-23T04:29:02;101788.50;;;15.35;94.52
48053;BME280;33824;51.600;5.718;2023-05-23T04:31:28;101788.13;;;15.38;94.21
48053;BME280;33824;51.600;5.718;2023-05-23T04:33:53;101785.91;;;15.42;93.86
48053;BME280;33824;51.600;5.718;2023-05-23T04:36:19;101795.44;;;15.45;94.17
48053;BME280;33824;51.600;5.718;2023-05-23T04:38:50;101792.75;;;15.45;93.60
48053;BME280;33824;51.600;5.718;2023-05-23T04:41:16;101797.75;;;15.56;93.82
48053;BME280;33824;51.600;5.718;2023-05-23T04:43:47;101798.22;;;15.59;93.44
48053;BME280;33824;51.600;5.718;2023-05-23T04:46:19;101807.66;;;15.55;93.51
48053;BME280;33824;51.600;5.718;2023-05-23T04:48:50;101805.34;;;15.52;93.76
48053;BME280;33824;51.600;5.718;2023-05-23T04:51:16;101802.84;;;15.51;93.76
48053;BME280;33824;51.600;5.718;2023-05-23T04:53:42;101808.69;;;15.54;93.53
48053;BME280;33824;51.600;5.718;2023-05-23T04:56:08;101808.13;;;15.59;93.17
48053;BME280;33824;51.600;5.718;2023-05-23T04:58:34;101817.59;;;15.55;93.72
48053;BME280;33824;51.600;5.718;2023-05-23T05:00:59;101817.75;;;15.53;93.45
48053;BME280;33824;51.600;5.718;2023-05-23T05:03:25;101813.31;;;15.60;93.10
48053;BME280;33824;51.600;5.718;2023-05-23T05:05:51;101814.28;;;15.67;92.75
48053;BME280;33824;51.600;5.718;2023-05-23T05:08:17;101818.25;;;15.71;92.60
48053;BME280;33824;51.600;5.718;2023-05-23T05:10:44;101813.78;;;15.64;92.75
48053;BME280;33824;51.600;5.718;2023-05-23T05:13:10;101826.41;;;15.63;92.76
48053;BME280;33824;51.600;5.718;2023-05-23T05:15:36;101833.16;;;15.59;92.82
48053;BME280;33824;51.600;5.718;2023-05-23T05:18:01;101834.25;;;15.50;93.15
48053;BME280;33824;51.600;5.718;2023-05-23T05:20:27;101830.81;;;15.56;92.59
48053;BME280;33824;51.600;5.718;2023-05-23T05:22:56;101835.75;;;15.45;92.71
48053;BME280;33824;51.600;5.718;2023-05-23T05:25:22;101839.03;;;15.40;93.28
48053;BME280;33824;51.600;5.718;2023-05-23T05:27:48;101845.56;;;15.37;93.16
48053;BME280;33824;51.600;5.718;2023-05-23T05:30:13;101848.09;;;15.39;92.74
48053;BME280;33824;51.600;5.718;2023-05-23T05:32:39;101842.16;;;15.29;93.28
48053;BME280;33824;51.600;5.718;2023-05-23T05:35:06;101849.78;;;15.17;93.20
48053;BME280;33824;51.600;5.718;2023-05-23T05:37:32;101850.00;;;15.08;93.78
48053;BME280;33824;51.600;5.718;2023-05-23T05:39:58;101856.34;;;15.15;93.22
48053;BME280;33824;51.600;5.718;2023-05-23T05:42:30;101870.19;;;15.04;93.55
48053;BME280;33824;51.600;5.718;2023-05-23T05:44:55;101872.50;;;15.07;92.96
48053;BME280;33824;51.600;5.718;2023-05-23T05:47:21;101873.06;;;15.02;93.46
48053;BME280;33824;51.600;5.718;2023-05-23T05:49:47;101872.59;;;14.99;93.78
48053;BME280;33824;51.600;5.718;2023-05-23T05:52:12;101873.81;;;14.88;94.54
48053;BME280;33824;51.600;5.718;2023-05-23T05:54:38;101873.81;;;14.88;94.76
48053;BME280;33824;51.600;5.718;2023-05-23T05:57:03;101883.78;;;14.79;94.80
48053;BME280;33824;51.600;5.718;2023-05-23T05:59:29;101883.44;;;14.82;94.62
48053;BME280;33824;51.600;5.718;2023-05-23T06:01:55;101876.06;;;14.76;94.87
48053;BME280;33824;51.600;5.718;2023-05-23T06:04:20;101880.41;;;14.77;94.75
48053;BME280;33824;51.600;5.718;2023-05-23T06:06:46;101880.78;;;14.74;94.78
48053;BME280;33824;51.600;5.718;2023-05-23T06:09:11;101887.47;;;14.78;95.00
48053;BME280;33824;51.600;5.718;2023-05-23T06:11:37;101880.09;;;14.72;95.28
48053;BME280;33824;51.600;5.718;2023-05-23T06:14:05;101891.03;;;14.71;95.09
48053;BME280;33824;51.600;5.718;2023-05-23T06:16:31;101882.31;;;14.69;94.52
48053;BME280;33824;51.600;5.718;2023-05-23T06:18:57;101897.72;;;14.75;94.68
48053;BME280;33824;51.600;5.718;2023-05-23T06:21:22;101906.44;;;14.77;94.78
48053;BME280;33824;51.600;5.718;2023-05-23T06:23:48;101899.72;;;14.73;94.14
48053;BME280;33824;51.600;5.718;2023-05-23T06:26:13;101905.47;;;14.70;94.35
48053;BME280;33824;51.600;5.718;2023-05-23T06:28:39;101916.72;;;14.65;94.24
48053;BME280;33824;51.600;5.718;2023-05-23T06:31:05;101909.38;;;14.59;94.21
48053;BME280;33824;51.600;5.718;2023-05-23T06:33:31;101918.63;;;14.57;93.97
48053;BME280;33824;51.600;5.718;2023-05-23T06:35:57;101914.44;;;14.46;94.14
48053;BME280;33824;51.600;5.718;2023-05-23T06:38:22;101914.78;;;14.43;94.10
48053;BME280;33824;51.600;5.718;2023-05-23T06:40:48;101928.41;;;14.42;93.89
48053;BME280;33824;51.600;5.718;2023-05-23T06:43:14;101923.19;;;14.32;94.19
48053;BME280;33824;51.600;5.718;2023-05-23T06:45:39;101930.09;;;14.26;94.22
48053;BME280;33824;51.600;5.718;2023-05-23T06:48:05;101930.75;;;14.28;93.96
48053;BME280;33824;51.600;5.718;2023-05-23T06:50:31;101930.06;;;14.34;93.13
48053;BME280;33824;51.600;5.718;2023-05-23T06:52:56;101943.66;;;14.25;93.38
48053;BME280;33824;51.600;5.718;2023-05-23T06:55:22;101942.66;;;14.26;93.18
48053;BME280;33824;51.600;5.718;2023-05-23T06:57:48;101951.22;;;14.29;93.13
48053;BME280;33824;51.600;5.718;2023-05-23T07:00:17;101945.19;;;14.35;92.87
48053;BME280;33824;51.600;5.718;2023-05-23T07:02:42;101954.22;;;14.34;91.79
48053;BME280;33824;51.600;5.718;2023-05-23T07:05:10;101958.25;;;14.30;91.51
48053;BME280;33824;51.600;5.718;2023-05-23T07:07:35;101964.13;;;14.26;91.53
48053;BME280;33824;51.600;5.718;2023-05-23T07:10:01;101958.56;;;14.27;90.86
48053;BME280;33824;51.600;5.718;2023-05-23T07:12:27;101964.13;;;14.26;90.46
48053;BME280;33824;51.600;5.718;2023-05-23T07:14:53;101961.59;;;14.32;89.62
48053;BME280;33824;51.600;5.718;2023-05-23T07:17:18;101966.75;;;14.50;89.35
48053;BME280;33824;51.600;5.718;2023-05-23T07:19:44;101961.06;;;14.53;88.57
48053;BME280;33824;51.600;5.718;2023-05-23T07:22:10;101957.19;;;14.64;87.57
48053;BME280;33824;51.600;5.718;2023-05-23T07:24:35;101965.88;;;14.66;85.67
48053;BME280;33824;51.600;5.718;2023-05-23T07:27:01;101963.66;;;14.77;85.98
48053;BME280;33824;51.600;5.718;2023-05-23T07:29:27;101969.16;;;14.84;84.93
48053;BME280;33824;51.600;5.718;2023-05-23T07:31:52;101972.22;;;14.73;82.29
48053;BME280;33824;51.600;5.718;2023-05-23T07:34:18;101958.16;;;14.71;81.95
48053;BME280;33824;51.600;5.718;2023-05-23T07:36:43;101965.59;;;14.92;82.17
48053;BME280;33824;51.600;5.718;2023-05-23T07:39:09;101973.06;;;15.12;81.82
48053;BME280;33824;51.600;5.718;2023-05-23T07:41:35;101964.91;;;15.28;81.49
48053;BME280;33824;51.600;5.718;2023-05-23T07:44:01;101972.97;;;15.28;80.57
48053;BME280;33824;51.600;5.718;2023-05-23T07:46:26;101967.59;;;15.28;79.63
48053;BME280;33824;51.600;5.718;2023-05-23T07:48:52;101973.56;;;15.38;80.49
48053;BME280;33824;51.600;5.718;2023-05-23T07:51:17;101972.59;;;15.62;79.20
48053;BME280;33824;51.600;5.718;2023-05-23T07:53:46;101974.16;;;15.49;76.85
48053;BME280;33824;51.600;5.718;2023-05-23T07:56:11;101985.56;;;15.59;77.27
48053;BME280;33824;51.600;5.718;2023-05-23T07:58:37;101984.03;;;15.79;76.44
48053;BME280;33824;51.600;5.718;2023-05-23T08:01:02;101978.22;;;16.13;75.73
48053;BME280;33824;51.600;5.718;2023-05-23T08:03:28;101977.00;;;16.15;74.56
48053;BME280;33824;51.600;5.718;2023-05-23T08:05:54;101976.38;;;16.28;74.72
48053;BME280;33824;51.600;5.718;2023-05-23T08:08:20;101983.78;;;16.11;73.34
48053;BME280;33824;51.600;5.718;2023-05-23T08:10:45;101988.63;;;16.30;74.48
48053;BME280;33824;51.600;5.718;2023-05-23T08:13:14;101990.78;;;16.35;74.17
48053;BME280;33824;51.600;5.718;2023-05-23T08:15:41;101999.09;;;16.25;73.93
48053;BME280;33824;51.600;5.718;2023-05-23T08:18:07;101994.38;;;16.27;74.92
48053;BME280;33824;51.600;5.718;2023-05-23T08:20:32;101998.94;;;16.42;75.28
48053;BME280;33824;51.600;5.718;2023-05-23T08:22:59;102001.63;;;16.42;74.93
48053;BME280;33824;51.600;5.718;2023-05-23T08:25:25;101999.16;;;16.55;74.58
48053;BME280;33824;51.600;5.718;2023-05-23T08:27:56;102001.84;;;16.55;74.67
48053;BME280;33824;51.600;5.718;2023-05-23T08:30:22;102004.69;;;16.39;73.91
48053;BME280;33824;51.600;5.718;2023-05-23T08:32:53;102003.31;;;16.28;73.88
48053;BME280;33824;51.600;5.718;2023-05-23T08:35:20;102003.41;;;16.49;74.88
48053;BME280;33824;51.600;5.718;2023-05-23T08:37:46;101998.72;;;16.66;75.00
48053;BME280;33824;51.600;5.718;2023-05-23T08:40:18;101995.97;;;16.51;74.43
48053;BME280;33824;51.600;5.718;2023-05-23T08:42:46;102000.38;;;16.67;74.15
48053;BME280;33824;51.600;5.718;2023-05-23T08:45:13;102001.13;;;16.61;73.36
48053;BME280;33824;51.600;5.718;2023-05-23T08:47:41;102019.06;;;16.68;73.56
48053;BME280;33824;51.600;5.718;2023-05-23T08:50:07;102010.50;;;16.65;73.93
48053;BME280;33824;51.600;5.718;2023-05-23T08:52:36;102006.34;;;16.77;73.79
48053;BME280;33824;51.600;5.718;2023-05-23T08:55:08;102016.63;;;16.88;74.19
48053;BME280;33824;51.600;5.718;2023-05-23T08:57:34;102010.09;;;16.97;73.88
48053;BME280;33824;51.600;5.718;2023-05-23T09:00:02;102025.72;;;16.87;74.40
48053;BME280;33824;51.600;5.718;2023-05-23T09:02:35;102027.13;;;16.83;73.52
48053;BME280;33824;51.600;5.718;2023-05-23T09:05:01;102024.53;;;17.04;72.49
48053;BME280;33824;51.600;5.718;2023-05-23T09:07:28;102020.00;;;17.26;72.53
48053;BME280;33824;51.600;5.718;2023-05-23T09:09:53;102034.97;;;17.28;72.51
48053;BME280;33824;51.600;5.718;2023-05-23T09:12:19;102025.50;;;17.18;70.97
48053;BME280;33824;51.600;5.718;2023-05-23T09:14:47;102026.69;;;17.30;68.99
48053;BME280;33824;51.600;5.718;2023-05-23T09:17:19;102025.31;;;17.34;69.57
48053;BME280;33824;51.600;5.718;2023-05-23T09:19:45;102032.78;;;17.39;70.38
48053;BME280;33824;51.600;5.718;2023-05-23T09:22:14;102039.28;;;16.94;69.37
48053;BME280;33824;51.600;5.718;2023-05-23T09:24:39;102046.53;;;16.64;69.98
48053;BME280;33824;51.600;5.718;2023-05-23T09:27:06;102044.66;;;16.64;70.93
48053;BME280;33824;51.600;5.718;2023-05-23T09:29:36;102047.06;;;16.74;70.38
48053;BME280;33824;51.600;5.718;2023-05-23T09:32:10;102052.63;;;17.16;70.34
48053;BME280;33824;51.600;5.718;2023-05-23T09:34:41;102040.47;;;17.06;65.95
48053;BME280;33824;51.600;5.718;2023-05-23T09:37:06;102041.97;;;16.94;67.45
48053;BME280;33824;51.600;5.718;2023-05-23T09:39:36;102044.13;;;16.98;66.98
48053;BME280;33824;51.600;5.718;2023-05-23T09:42:02;102042.44;;;16.97;65.99
48053;BME280;33824;51.600;5.718;2023-05-23T09:44:27;102047.06;;;17.18;67.30
48053;BME280;33824;51.600;5.718;2023-05-23T09:46:53;102046.44;;;17.52;66.36
48053;BME280;33824;51.600;5.718;2023-05-23T09:49:18;102042.25;;;17.64;64.95
48053;BME280;33824;51.600;5.718;2023-05-23T09:51:59;102047.78;;;17.41;62.58
48053;BME280;33824;51.600;5.718;2023-05-23T09:54:25;102021.03;;;17.25;63.97
48053;BME280;33824;51.600;5.718;2023-05-23T09:56:52;102049.28;;;17.29;64.60
48053;BME280;33824;51.600;5.718;2023-05-23T09:59:19;102043.28;;;17.48;62.56
48053;BME280;33824;51.600;5.718;2023-05-23T10:01:50;102052.25;;;17.34;63.08
48053;BME280;33824;51.600;5.718;2023-05-23T10:04:20;102054.38;;;17.39;63.28
48053;BME280;33824;51.600;5.718;2023-05-23T10:06:59;102060.25;;;17.27;63.23
48053;BME280;33824;51.600;5.718;2023-05-23T10:09:27;102055.09;;;17.11;62.54
48053;BME280;33824;51.600;5.718;2023-05-23T10:12:38;102055.19;;;16.51;62.52
48053;BME280;33824;51.600;5.718;2023-05-23T10:15:08;102051.53;;;17.25;62.90
48053;BME280;33824;51.600;5.718;2023-05-23T10:17:52;102054.91;;;17.49;60.87
48053;BME280;33824;51.600;5.718;2023-05-23T10:20:27;102056.25;;;17.38;59.21
48053;BME280;33824;51.600;5.718;2023-05-23T10:22:58;102053.31;;;17.54;59.28
48053;BME280;33824;51.600;5.718;2023-05-23T10:25:24;102061.97;;;17.86;58.74
48053;BME280;33824;51.600;5.718;2023-05-23T10:27:54;102045.59;;;17.66;59.25
48053;BME280;33824;51.600;5.718;2023-05-23T10:30:24;102051.03;;;17.37;58.61
48053;BME280;33824;51.600;5.718;2023-05-23T10:32:51;102052.16;;;17.42;58.75
48053;BME280;33824;51.600;5.718;2023-05-23T10:38:45;102059.81;;;17.09;55.96
48053;BME280;33824;51.600;5.718;2023-05-23T10:46:56;102052.63;;;18.03;57.16
48053;BME280;33824;51.600;5.718;2023-05-23T10:49:39;102050.28;;;17.57;54.07
48053;BME280;33824;51.600;5.718;2023-05-23T10:52:05;102048.31;;;17.87;54.40
48053;BME280;33824;51.600;5.718;2023-05-23T10:54:42;102043.78;;;18.15;53.94
48053;BME280;33824;51.600;5.718;2023-05-23T10:57:10;102041.78;;;18.24;55.28
48053;BME280;33824;51.600;5.718;2023-05-23T10:59:37;102043.66;;;17.81;53.40
48053;BME280;33824;51.600;5.718;2023-05-23T11:02:11;102043.59;;;17.96;53.84
48053;BME280;33824;51.600;5.718;2023-05-23T11:04:37;102034.81;;;18.36;54.60
48053;BME280;33824;51.600;5.718;2023-05-23T11:07:03;102038.25;;;18.23;53.36
48053;BME280;33824;51.600;5.718;2023-05-23T11:09:29;102047.97;;;18.67;53.95
48053;BME280;33824;51.600;5.718;2023-05-23T11:12:06;102041.25;;;18.56;53.31
48053;BME280;33824;51.600;5.718;2023-05-23T11:17:18;102038.78;;;18.12;50.35
48053;BME280;33824;51.600;5.718;2023-05-23T11:19:55;102046.81;;;18.06;49.72
48053;BME280;33824;51.600;5.718;2023-05-23T11:22:26;102050.59;;;18.11;50.79
48053;BME280;33824;51.600;5.718;2023-05-23T11:24:56;102030.13;;;18.45;51.58
48053;BME280;33824;51.600;5.718;2023-05-23T11:27:36;102029.19;;;18.38;51.99
48053;BME280;33824;51.600;5.718;2023-05-23T11:32:31;102035.97;;;19.24;54.05
48053;BME280;33824;51.600;5.718;2023-05-23T11:35:01;102038.22;;;18.73;49.95
48053;BME280;33824;51.600;5.718;2023-05-23T11:37:27;102047.81;;;18.75;49.91
48053;BME280;33824;51.600;5.718;2023-05-23T11:39:53;102043.53;;;18.94;51.14
48053;BME280;33824;51.600;5.718;2023-05-23T11:42:19;102050.50;;;19.09;50.56
48053;BME280;33824;51.600;5.718;2023-05-23T11:44:48;102043.38;;;19.02;52.43
48053;BME280;33824;51.600;5.718;2023-05-23T11:47:13;102049.41;;;19.04;53.03
48053;BME280;33824;51.600;5.718;2023-05-23T11:49:39;102055.69;;;19.11;52.50
48053;BME280;33824;51.600;5.718;2023-05-23T11:52:05;102045.28;;;19.08;49.43
48053;BME280;33824;51.600;5.718;2023-05-23T11:54:32;102048.28;;;18.92;49.36
48053;BME280;33824;51.600;5.718;2023-05-23T11:56:58;102042.31;;;19.03;49.26
48053;BME280;33824;51.600;5.718;2023-05-23T11:59:25;102044.66;;;19.60;51.07
48053;BME280;33824;51.600;5.718;2023-05-23T12:01:54;102036.28;;;19.42;49.74
48053;BME280;33824;51.600;5.718;2023-05-23T12:04:20;102044.63;;;19.53;49.50
48053;BME280;33824;51.600;5.718;2023-05-23T12:06:47;102043.38;;;19.43;50.98
48053;BME280;33824;51.600;5.718;2023-05-23T12:09:14;102032.38;;;19.51;49.60
48053;BME280;33824;51.600;5.718;2023-05-23T12:11:41;102044.81;;;19.45;50.50
48053;BME280;33824;51.600;5.718;2023-05-23T12:14:08;102054.91;;;19.24;51.08
48053;BME280;33824;51.600;5.718;2023-05-23T12:16:38;102056.66;;;19.44;50.65
48053;BME280;33824;51.600;5.718;2023-05-23T12:19:04;102057.22;;;20.13;50.98
48053;BME280;33824;51.600;5.718;2023-05-23T12:21:46;102058.28;;;20.26;48.20
48053;BME280;33824;51.600;5.718;2023-05-23T12:24:19;102062.38;;;19.69;48.56
48053;BME280;33824;51.600;5.718;2023-05-23T12:26:53;102061.94;;;19.59;47.97
48053;BME280;33824;51.600;5.718;2023-05-23T12:29:41;102059.31;;;20.05;48.92
48053;BME280;33824;51.600;5.718;2023-05-23T12:32:06;102060.28;;;19.58;49.33
48053;BME280;33824;51.600;5.718;2023-05-23T12:34:31;102071.69;;;19.47;49.95
48053;BME280;33824;51.600;5.718;2023-05-23T12:36:59;102059.41;;;19.51;51.06
48053;BME280;33824;51.600;5.718;2023-05-23T12:39:27;102063.66;;;19.86;50.89
48053;BME280;33824;51.600;5.718;2023-05-23T12:41:53;102065.31;;;19.87;50.74
48053;BME280;33824;51.600;5.718;2023-05-23T12:44:21;102067.88;;;19.41;48.27
48053;BME280;33824;51.600;5.718;2023-05-23T12:46:46;102068.38;;;19.51;49.52
48053;BME280;33824;51.600;5.718;2023-05-23T12:49:12;102084.41;;;19.59;48.48
48053;BME280;33824;51.600;5.718;2023-05-23T12:51:39;102064.06;;;19.83;48.80
48053;BME280;33824;51.600;5.718;2023-05-23T12:54:04;102071.75;;;19.67;47.11
48053;BME280;33824;51.600;5.718;2023-05-23T12:56:30;102073.16;;;19.15;47.11
48053;BME280;33824;51.600;5.718;2023-05-23T12:58:56;102075.66;;;19.51;48.60
48053;BME280;33824;51.600;5.718;2023-05-23T13:01:22;102081.63;;;19.40;49.63
48053;BME280;33824;51.600;5.718;2023-05-23T13:03:47;102083.56;;;19.18;50.26
48053;BME280;33824;51.600;5.718;2023-05-23T13:06:13;102082.28;;;19.48;49.72
48053;BME280;33824;51.600;5.718;2023-05-23T13:08:39;102073.78;;;19.51;49.74
48053;BME280;33824;51.600;5.718;2023-05-23T13:11:04;102077.34;;;19.58;48.03